createdAt,value
2023-04-26T00:00:55.458Z,0
2023-04-26T00:02:11.595Z,0
2023-04-26T00:03:27.739Z,0
2023-04-26T00:04:43.871Z,0
2023-04-26T00:06:00.004Z,0
2023-04-26T00:07:16.149Z,0
2023-04-26T00:08:32.270Z,0
2023-04-26T00:09:48.434Z,0
2023-04-26T00:11:04.550Z,0
2023-04-26T00:12:20.683Z,0
2023-04-26T00:13:36.823Z,0
2023-04-26T00:14:52.952Z,0
2023-04-26T00:16:09.111Z,0
2023-04-26T00:17:25.232Z,0
2023-04-26T00:18:41.373Z,0
2023-04-26T00:19:57.512Z,0
2023-04-26T00:21:13.646Z,0
2023-04-26T00:22:29.778Z,0
2023-04-26T00:23:45.914Z,0
2023-04-26T00:25:02.047Z,0
2023-04-26T00:26:18.177Z,0
2023-04-26T00:27:34.316Z,0
2023-04-26T00:28:50.523Z,0
2023-04-26T00:30:05.726Z,0
2023-04-26T00:31:20.881Z,0
2023-04-26T00:32:37.027Z,0
2023-04-26T00:33:53.160Z,0
2023-04-26T00:35:09.301Z,0
2023-04-26T00:36:25.435Z,0
2023-04-26T00:37:41.555Z,0
2023-04-26T00:38:57.706Z,0
2023-04-26T00:40:13.847Z,0
2023-04-26T00:41:29.971Z,0
2023-04-26T00:42:46.104Z,0
2023-04-26T00:45:18.393Z,0
2023-04-26T00:46:34.524Z,0
2023-04-26T00:47:50.650Z,0
2023-04-26T00:49:06.792Z,0
2023-04-26T00:50:22.926Z,0
2023-04-26T00:51:39.064Z,0
2023-04-26T00:52:55.191Z,0
2023-04-26T00:54:11.326Z,0
2023-04-26T00:55:27.468Z,0
2023-04-26T00:56:43.596Z,0
2023-04-26T00:57:59.739Z,0
2023-04-26T00:59:15.870Z,0
2023-04-26T01:00:32.011Z,0
2023-04-26T01:01:48.147Z,0
2023-04-26T01:03:04.271Z,0
2023-04-26T01:04:20.427Z,0
2023-04-26T01:05:36.565Z,0
2023-04-26T01:06:52.698Z,0
2023-04-26T01:08:08.818Z,0
2023-04-26T01:09:24.965Z,0
2023-04-26T01:10:41.100Z,0
2023-04-26T01:11:57.241Z,0
2023-04-26T01:13:13.375Z,0
2023-04-26T01:14:29.509Z,0
2023-04-26T01:15:45.647Z,0
2023-04-26T01:17:01.776Z,0
2023-04-26T01:18:17.988Z,0
2023-04-26T01:19:33.211Z,0
2023-04-26T01:20:48.431Z,0
2023-04-26T01:22:04.557Z,0
2023-04-26T01:23:20.683Z,0
2023-04-26T01:24:36.822Z,0
2023-04-26T01:25:52.953Z,0
2023-04-26T01:27:09.112Z,0
2023-04-26T01:28:25.242Z,0
2023-04-26T01:30:57.494Z,0
2023-04-26T01:32:13.628Z,0
2023-04-26T01:33:29.791Z,0
2023-04-26T01:34:45.916Z,0
2023-04-26T01:36:02.047Z,0
2023-04-26T01:37:18.184Z,0
2023-04-26T01:38:34.322Z,0
2023-04-26T01:39:50.472Z,0
2023-04-26T01:41:06.597Z,0
2023-04-26T01:42:22.734Z,0
2023-04-26T01:43:38.867Z,0
2023-04-26T01:44:54.986Z,0
2023-04-26T01:46:11.151Z,0
2023-04-26T01:47:27.283Z,0
2023-04-26T01:48:43.415Z,0
2023-04-26T01:49:59.551Z,0
2023-04-26T01:51:15.684Z,0
2023-04-26T01:52:31.889Z,0
2023-04-26T01:53:47.121Z,0
2023-04-26T01:55:02.322Z,0
2023-04-26T01:56:18.472Z,0
2023-04-26T01:57:34.612Z,0
2023-04-26T01:58:50.000Z,0
2023-04-26T02:00:06.875Z,0
2023-04-26T02:01:23.012Z,0
2023-04-26T02:02:39.140Z,0
2023-04-26T02:03:55.289Z,0
2023-04-26T02:05:11.422Z,0
2023-04-26T02:06:27.554Z,0
2023-04-26T02:07:43.681Z,0
2023-04-26T02:08:59.833Z,0
2023-04-26T02:10:15.967Z,0
2023-04-26T02:11:32.088Z,0
2023-04-26T02:12:48.231Z,0
2023-04-26T02:14:04.366Z,0
2023-04-26T02:15:20.509Z,0
2023-04-26T02:16:36.647Z,0
2023-04-26T02:17:52.775Z,0
2023-04-26T02:19:08.916Z,0
2023-04-26T02:20:25.039Z,0
2023-04-26T02:21:41.184Z,0
2023-04-26T02:22:57.314Z,0
2023-04-26T02:24:13.463Z,0
2023-04-26T02:25:29.582Z,0
2023-04-26T02:26:45.772Z,0
2023-04-26T02:28:01.055Z,0
2023-04-26T02:29:16.288Z,0
2023-04-26T02:30:31.489Z,0
2023-04-26T02:31:47.627Z,0
2023-04-26T02:33:03.769Z,0
2023-04-26T02:34:19.899Z,0
2023-04-26T02:35:36.026Z,0
2023-04-26T02:36:52.180Z,0
2023-04-26T02:38:08.306Z,0
2023-04-26T02:39:24.445Z,0
2023-04-26T02:40:40.563Z,0
2023-04-26T02:41:56.711Z,0
2023-04-26T02:43:12.854Z,0
2023-04-26T02:44:28.988Z,0
2023-04-26T02:45:45.121Z,0
2023-04-26T02:47:01.251Z,0
2023-04-26T02:48:17.385Z,0
2023-04-26T02:49:33.531Z,0
2023-04-26T02:50:49.674Z,0
2023-04-26T02:52:05.791Z,0
2023-04-26T02:53:21.926Z,0
2023-04-26T02:54:38.056Z,0
2023-04-26T02:55:54.216Z,0
2023-04-26T02:57:10.341Z,0
2023-04-26T02:58:26.481Z,0
2023-04-26T02:59:42.615Z,0
2023-04-26T03:00:58.740Z,0
2023-04-26T03:02:14.950Z,0
2023-04-26T03:03:30.192Z,0
2023-04-26T03:04:45.408Z,0
2023-04-26T03:06:01.543Z,0
2023-04-26T03:07:17.674Z,0
2023-04-26T03:08:33.797Z,0
2023-04-26T03:09:49.947Z,0
2023-04-26T03:11:06.065Z,0
2023-04-26T03:12:22.229Z,0
2023-04-26T03:13:38.362Z,0
2023-04-26T03:14:54.492Z,0
2023-04-26T03:16:10.618Z,0
2023-04-26T03:17:26.750Z,0
2023-04-26T03:18:42.907Z,0
2023-04-26T03:19:59.042Z,0
2023-04-26T03:21:15.174Z,0
2023-04-26T03:22:31.297Z,0
2023-04-26T03:23:47.427Z,0
2023-04-26T03:25:03.577Z,0
2023-04-26T03:26:19.702Z,0
2023-04-26T03:27:35.851Z,0
2023-04-26T03:28:51.985Z,0
2023-04-26T03:30:08.102Z,0
2023-04-26T03:31:24.252Z,0
2023-04-26T03:32:40.385Z,0
2023-04-26T03:33:56.529Z,0
2023-04-26T03:35:12.650Z,0
2023-04-26T03:36:28.847Z,0
2023-04-26T03:37:44.093Z,0
2023-04-26T03:38:59.293Z,0
2023-04-26T03:40:14.455Z,0
2023-04-26T03:41:30.580Z,0
2023-04-26T03:42:46.715Z,0
2023-04-26T03:44:02.852Z,0
2023-04-26T03:45:18.980Z,0
2023-04-26T03:46:35.121Z,0
2023-04-26T03:47:51.253Z,0
2023-04-26T03:49:07.389Z,0
2023-04-26T03:50:23.520Z,0
2023-04-26T03:51:39.649Z,0
2023-04-26T03:52:55.803Z,0
2023-04-26T03:54:11.939Z,0
2023-04-26T03:55:28.066Z,0
2023-04-26T03:56:44.205Z,0
2023-04-26T03:58:00.336Z,0
2023-04-26T03:59:16.487Z,0
2023-04-26T04:00:32.617Z,0
2023-04-26T04:01:48.755Z,0
2023-04-26T04:03:04.882Z,0
2023-04-26T04:04:21.012Z,0
2023-04-26T04:05:37.173Z,0
2023-04-26T04:06:53.304Z,0
2023-04-26T04:08:09.425Z,5
2023-04-26T04:09:25.568Z,5
2023-04-26T04:10:41.702Z,5
2023-04-26T04:11:57.836Z,5
2023-04-26T04:13:13.969Z,5
2023-04-26T04:14:30.103Z,5
2023-04-26T04:15:46.240Z,11
2023-04-26T04:17:02.378Z,11
2023-04-26T04:18:18.517Z,11
2023-04-26T04:19:34.655Z,11
2023-04-26T04:20:50.783Z,11
2023-04-26T04:22:06.922Z,11
2023-04-26T04:23:23.060Z,11
2023-04-26T04:24:39.205Z,11
2023-04-26T04:25:55.339Z,16
2023-04-26T04:27:11.528Z,16
2023-04-26T04:28:26.779Z,16
2023-04-26T04:29:42.060Z,16
2023-04-26T04:30:57.297Z,22
2023-04-26T04:32:12.504Z,22
2023-04-26T04:33:28.635Z,28
2023-04-26T04:34:44.777Z,28
2023-04-26T04:36:00.910Z,28
2023-04-26T04:37:17.043Z,28
2023-04-26T04:38:33.173Z,28
2023-04-26T04:39:49.312Z,28
2023-04-26T04:41:05.438Z,33
2023-04-26T04:42:21.576Z,33
2023-04-26T04:43:37.722Z,33
2023-04-26T04:44:53.868Z,33
2023-04-26T04:46:09.994Z,39
2023-04-26T04:47:26.135Z,39
2023-04-26T04:48:42.261Z,39
2023-04-26T04:49:58.394Z,39
2023-04-26T04:51:14.531Z,39
2023-04-26T04:52:30.673Z,39
2023-04-26T04:53:46.807Z,33
2023-04-26T04:55:02.946Z,33
2023-04-26T04:56:19.071Z,28
2023-04-26T04:57:35.212Z,28
2023-04-26T04:58:51.364Z,28
2023-04-26T05:00:07.485Z,33
2023-04-26T05:01:23.621Z,33
2023-04-26T05:02:39.745Z,33
2023-04-26T05:03:55.960Z,33
2023-04-26T05:05:11.171Z,33
2023-04-26T05:06:26.314Z,33
2023-04-26T05:07:42.462Z,39
2023-04-26T05:08:58.608Z,39
2023-04-26T05:10:14.723Z,45
2023-04-26T05:11:30.867Z,45
2023-04-26T05:12:46.999Z,45
2023-04-26T05:14:03.147Z,45
2023-04-26T05:15:19.276Z,45
2023-04-26T05:16:35.404Z,45
2023-04-26T05:17:51.553Z,45
2023-04-26T05:19:07.679Z,45
2023-04-26T05:20:23.835Z,50
2023-04-26T05:21:39.961Z,50
2023-04-26T05:22:56.094Z,50
2023-04-26T05:24:12.227Z,45
2023-04-26T05:25:28.356Z,45
2023-04-26T05:26:44.495Z,50
2023-04-26T05:28:00.630Z,50
2023-04-26T05:29:16.772Z,50
2023-04-26T05:30:32.900Z,50
2023-04-26T05:31:49.031Z,50
2023-04-26T05:33:05.185Z,50
2023-04-26T05:34:21.310Z,50
2023-04-26T05:35:37.452Z,50
2023-04-26T05:36:53.583Z,56
2023-04-26T05:38:09.715Z,61
2023-04-26T05:39:25.857Z,61
2023-04-26T05:40:42.007Z,67
2023-04-26T05:41:58.124Z,78
2023-04-26T05:43:14.268Z,78
2023-04-26T05:44:30.401Z,67
2023-04-26T05:45:46.538Z,73
2023-04-26T05:47:02.683Z,78
2023-04-26T05:48:18.816Z,84
2023-04-26T05:49:34.939Z,95
2023-04-26T05:50:51.078Z,106
2023-04-26T05:52:07.220Z,101
2023-04-26T05:53:23.418Z,101
2023-04-26T05:54:38.621Z,101
2023-04-26T05:55:54.761Z,106
2023-04-26T05:57:10.904Z,106
2023-04-26T05:58:27.035Z,106
2023-04-26T05:59:43.166Z,123
2023-04-26T06:00:59.306Z,123
2023-04-26T06:02:15.447Z,123
2023-04-26T06:03:31.591Z,135
2023-04-26T06:04:47.721Z,140
2023-04-26T06:06:03.853Z,151
2023-04-26T06:07:19.993Z,151
2023-04-26T06:08:36.121Z,151
2023-04-26T06:09:52.274Z,163
2023-04-26T06:11:08.400Z,191
2023-04-26T06:12:24.544Z,174
2023-04-26T06:13:40.670Z,163
2023-04-26T06:14:56.802Z,146
2023-04-26T06:16:12.957Z,140
2023-04-26T06:17:29.087Z,151
2023-04-26T06:18:45.208Z,191
2023-04-26T06:20:01.343Z,236
2023-04-26T06:22:33.620Z,219
2023-04-26T06:23:49.770Z,208
2023-04-26T06:25:05.896Z,196
2023-04-26T06:26:22.098Z,208
2023-04-26T06:27:37.328Z,213
2023-04-26T06:28:52.526Z,196
2023-04-26T06:30:07.677Z,196
2023-04-26T06:31:23.831Z,185
2023-04-26T06:32:39.961Z,213
2023-04-26T06:33:56.104Z,213
2023-04-26T06:35:12.235Z,208
2023-04-26T06:36:28.359Z,196
2023-04-26T06:37:44.509Z,191
2023-04-26T06:39:00.655Z,202
2023-04-26T06:40:16.788Z,196
2023-04-26T06:41:32.914Z,185
2023-04-26T06:42:49.049Z,174
2023-04-26T06:44:05.193Z,157
2023-04-26T06:45:21.331Z,151
2023-04-26T06:46:37.471Z,151
2023-04-26T06:47:53.600Z,151
2023-04-26T06:49:09.733Z,146
2023-04-26T06:50:25.878Z,168
2023-04-26T06:51:42.004Z,174
2023-04-26T06:52:58.151Z,168
2023-04-26T06:54:14.275Z,253
2023-04-26T06:55:30.403Z,123
2023-04-26T06:56:46.551Z,157
2023-04-26T06:58:02.684Z,157
2023-04-26T06:59:18.824Z,157
2023-04-26T07:00:34.960Z,157
2023-04-26T07:01:51.091Z,185
2023-04-26T07:03:07.229Z,230
2023-04-26T07:04:23.374Z,213
2023-04-26T07:05:39.500Z,247
2023-04-26T07:06:55.643Z,320
2023-04-26T07:08:11.780Z,348
2023-04-26T07:09:27.923Z,303
2023-04-26T07:10:44.052Z,236
2023-04-26T07:12:00.175Z,275
2023-04-26T07:13:16.316Z,331
2023-04-26T07:14:32.446Z,326
2023-04-26T07:15:48.609Z,298
2023-04-26T07:17:04.796Z,247
2023-04-26T07:18:20.020Z,230
2023-04-26T07:19:35.247Z,230
2023-04-26T07:20:51.377Z,641
2023-04-26T07:22:07.512Z,1321
2023-04-26T07:23:23.639Z,1417
2023-04-26T07:24:39.771Z,1046
2023-04-26T07:25:55.920Z,1254
2023-04-26T07:27:12.056Z,911
2023-04-26T07:28:28.183Z,1023
2023-04-26T07:29:44.327Z,945
2023-04-26T07:31:00.453Z,1080
2023-04-26T07:32:16.608Z,933
2023-04-26T07:33:32.730Z,1012
2023-04-26T07:34:48.867Z,1074
2023-04-26T07:36:05.006Z,911
2023-04-26T07:37:21.131Z,1141
2023-04-26T07:38:37.282Z,1710
2023-04-26T07:39:53.410Z,1586
2023-04-26T07:41:09.546Z,798
2023-04-26T07:42:25.682Z,883
2023-04-26T07:43:41.816Z,1653
2023-04-26T07:44:57.964Z,1760
2023-04-26T07:46:14.088Z,1743
2023-04-26T07:47:30.231Z,545
2023-04-26T07:48:46.360Z,365
2023-04-26T07:50:02.499Z,466
2023-04-26T07:51:18.716Z,427
2023-04-26T07:52:33.936Z,495
2023-04-26T07:53:50.127Z,585
2023-04-26T07:55:05.348Z,433
2023-04-26T07:56:21.469Z,399
2023-04-26T07:57:37.605Z,331
2023-04-26T07:58:53.754Z,264
2023-04-26T08:00:09.876Z,185
2023-04-26T08:01:26.030Z,236
2023-04-26T08:02:42.156Z,371
2023-04-26T08:03:58.289Z,450
2023-04-26T08:05:14.428Z,517
2023-04-26T08:06:30.556Z,652
2023-04-26T08:07:46.699Z,500
2023-04-26T08:09:02.844Z,545
2023-04-26T08:10:18.966Z,444
2023-04-26T08:11:35.103Z,483
2023-04-26T08:12:51.241Z,630
2023-04-26T08:14:07.395Z,815
2023-04-26T08:15:23.529Z,511
2023-04-26T08:16:39.652Z,545
2023-04-26T08:17:55.783Z,776
2023-04-26T08:19:11.933Z,663
2023-04-26T08:20:28.064Z,630
2023-04-26T08:21:44.199Z,838
2023-04-26T08:23:00.345Z,798
2023-04-26T08:24:16.475Z,1507
2023-04-26T08:25:32.607Z,1046
2023-04-26T08:26:48.814Z,528
2023-04-26T08:28:04.046Z,545
2023-04-26T08:29:19.262Z,815
2023-04-26T08:30:35.410Z,601
2023-04-26T08:31:51.526Z,590
2023-04-26T08:33:07.679Z,669
2023-04-26T08:34:23.793Z,2103
2023-04-26T08:35:39.941Z,1980
2023-04-26T08:36:56.085Z,1670
2023-04-26T08:38:12.218Z,1580
2023-04-26T08:39:28.356Z,1985
2023-04-26T08:40:44.477Z,1845
2023-04-26T08:42:00.617Z,1974
2023-04-26T08:43:16.774Z,2092
2023-04-26T08:44:32.911Z,2160
2023-04-26T08:45:49.027Z,832
2023-04-26T08:47:05.174Z,2171
2023-04-26T08:48:21.314Z,1940
2023-04-26T08:49:37.460Z,888
2023-04-26T08:50:53.592Z,534
2023-04-26T08:52:09.729Z,371
2023-04-26T08:53:25.860Z,421
2023-04-26T08:54:41.989Z,343
2023-04-26T08:55:58.139Z,253
2023-04-26T08:57:14.276Z,556
2023-04-26T08:58:30.395Z,2098
2023-04-26T08:59:46.528Z,450
2023-04-26T09:01:02.722Z,343
2023-04-26T09:02:17.982Z,376
2023-04-26T09:03:33.203Z,309
2023-04-26T09:04:49.340Z,236
2023-04-26T09:06:05.488Z,213
2023-04-26T09:07:21.619Z,185
2023-04-26T09:08:37.748Z,135
2023-04-26T09:09:53.877Z,118
2023-04-26T09:11:10.013Z,84
2023-04-26T09:12:26.163Z,67
2023-04-26T09:13:42.288Z,73
2023-04-26T09:14:58.435Z,84
2023-04-26T09:16:14.558Z,90
2023-04-26T09:17:30.688Z,90
2023-04-26T09:18:46.854Z,101
2023-04-26T09:20:02.976Z,112
2023-04-26T09:21:19.117Z,106
2023-04-26T09:22:35.247Z,106
2023-04-26T09:23:51.383Z,129
2023-04-26T09:25:07.526Z,180
2023-04-26T09:26:23.661Z,225
2023-04-26T09:27:39.792Z,275
2023-04-26T09:28:55.925Z,298
2023-04-26T09:30:12.071Z,450
2023-04-26T09:31:28.212Z,540
2023-04-26T09:32:44.342Z,506
2023-04-26T09:34:00.487Z,466
2023-04-26T09:35:16.662Z,365
2023-04-26T09:36:31.916Z,275
2023-04-26T09:37:48.103Z,275
2023-04-26T09:39:03.303Z,298
2023-04-26T09:40:19.445Z,320
2023-04-26T09:41:35.599Z,371
2023-04-26T09:42:51.722Z,388
2023-04-26T09:44:07.852Z,489
2023-04-26T09:45:23.999Z,703
2023-04-26T09:46:40.119Z,905
2023-04-26T09:47:56.277Z,894
2023-04-26T09:49:12.404Z,810
2023-04-26T09:50:28.544Z,691
2023-04-26T09:51:44.668Z,922
2023-04-26T09:53:00.801Z,838
2023-04-26T09:54:16.943Z,956
2023-04-26T09:55:33.082Z,939
2023-04-26T09:56:49.216Z,883
2023-04-26T09:58:05.364Z,821
2023-04-26T09:59:21.498Z,1063
2023-04-26T10:00:37.634Z,1096
2023-04-26T10:01:53.774Z,579
2023-04-26T10:03:09.905Z,736
2023-04-26T10:04:26.049Z,900
2023-04-26T10:05:42.170Z,855
2023-04-26T10:06:58.315Z,309
2023-04-26T10:08:14.448Z,202
2023-04-26T10:09:30.584Z,180
2023-04-26T10:10:46.787Z,225
2023-04-26T10:12:02.013Z,219
2023-04-26T10:13:17.227Z,236
2023-04-26T10:14:32.384Z,225
2023-04-26T10:15:48.527Z,185
2023-04-26T10:17:04.667Z,163
2023-04-26T10:18:20.801Z,157
2023-04-26T10:19:36.938Z,163
2023-04-26T10:20:53.057Z,185
2023-04-26T10:22:09.216Z,230
2023-04-26T10:23:25.347Z,309
2023-04-26T10:24:41.487Z,433
2023-04-26T10:25:57.619Z,472
2023-04-26T10:27:13.738Z,1299
2023-04-26T10:28:29.896Z,1288
2023-04-26T10:29:46.031Z,354
2023-04-26T10:31:02.155Z,286
2023-04-26T10:32:18.291Z,219
2023-04-26T10:33:34.422Z,163
2023-04-26T10:34:50.590Z,123
2023-04-26T10:36:06.714Z,101
2023-04-26T10:37:22.843Z,101
2023-04-26T10:38:38.985Z,112
2023-04-26T10:39:55.109Z,123
2023-04-26T10:41:11.256Z,135
2023-04-26T10:42:27.403Z,146
2023-04-26T10:43:43.541Z,151
2023-04-26T10:44:59.655Z,157
2023-04-26T10:46:15.805Z,202
2023-04-26T10:47:31.947Z,298
2023-04-26T10:48:48.083Z,360
2023-04-26T10:50:04.219Z,225
2023-04-26T10:51:20.347Z,185
2023-04-26T10:52:36.475Z,180
2023-04-26T10:53:52.627Z,196
2023-04-26T10:55:08.757Z,230
2023-04-26T10:56:24.906Z,348
2023-04-26T10:57:41.024Z,371
2023-04-26T10:58:57.165Z,326
2023-04-26T11:00:13.304Z,275
2023-04-26T11:01:29.508Z,241
2023-04-26T11:02:44.750Z,225
2023-04-26T11:03:59.959Z,202
2023-04-26T11:05:16.074Z,174
2023-04-26T11:06:32.222Z,140
2023-04-26T11:07:48.354Z,106
2023-04-26T11:09:04.485Z,101
2023-04-26T11:10:20.629Z,123
2023-04-26T11:11:36.755Z,129
2023-04-26T11:12:52.903Z,123
2023-04-26T11:14:09.036Z,118
2023-04-26T11:15:25.171Z,118
2023-04-26T11:16:41.309Z,118
2023-04-26T11:17:57.442Z,118
2023-04-26T11:19:13.583Z,112
2023-04-26T11:20:29.723Z,112
2023-04-26T11:21:45.837Z,118
2023-04-26T11:23:01.989Z,106
2023-04-26T11:24:18.125Z,78
2023-04-26T11:25:34.267Z,61
2023-04-26T11:26:50.402Z,50
2023-04-26T11:28:06.537Z,61
2023-04-26T11:29:22.687Z,78
2023-04-26T11:30:38.820Z,95
2023-04-26T11:31:54.954Z,118
2023-04-26T11:33:11.084Z,135
2023-04-26T11:34:27.223Z,157
2023-04-26T11:35:43.411Z,202
2023-04-26T11:36:58.657Z,230
2023-04-26T11:38:13.859Z,202
2023-04-26T11:39:30.002Z,180
2023-04-26T11:40:46.149Z,174
2023-04-26T11:42:02.273Z,163
2023-04-26T11:43:18.407Z,157
2023-04-26T11:44:34.551Z,157
2023-04-26T11:45:50.693Z,163
2023-04-26T11:47:06.832Z,168
2023-04-26T11:48:22.963Z,185
2023-04-26T11:49:39.085Z,202
2023-04-26T11:50:55.234Z,202
2023-04-26T11:52:11.371Z,213
2023-04-26T11:53:27.508Z,275
2023-04-26T11:54:43.635Z,253
2023-04-26T11:55:59.781Z,264
2023-04-26T11:58:32.060Z,253
2023-04-26T11:59:48.186Z,236
2023-04-26T12:01:04.312Z,225
2023-04-26T12:02:20.460Z,230
2023-04-26T12:03:36.594Z,213
2023-04-26T12:04:52.742Z,185
2023-04-26T12:06:08.860Z,163
2023-04-26T12:07:24.996Z,140
2023-04-26T12:08:41.130Z,135
2023-04-26T12:09:57.331Z,135
2023-04-26T12:11:12.562Z,140
2023-04-26T12:12:28.765Z,140
2023-04-26T12:13:43.977Z,135
2023-04-26T12:15:00.114Z,140
2023-04-26T12:16:16.245Z,157
2023-04-26T12:17:32.374Z,168
2023-04-26T12:18:48.505Z,191
2023-04-26T12:20:04.644Z,219
2023-04-26T12:21:20.796Z,241
2023-04-26T12:22:36.928Z,264
2023-04-26T12:23:53.061Z,275
2023-04-26T12:25:09.195Z,286
2023-04-26T12:26:25.327Z,292
2023-04-26T12:27:41.470Z,281
2023-04-26T12:28:57.604Z,253
2023-04-26T12:30:13.734Z,196
2023-04-26T12:31:29.866Z,191
2023-04-26T12:32:45.999Z,185
2023-04-26T12:34:02.150Z,174
2023-04-26T12:35:18.282Z,146
2023-04-26T12:36:34.414Z,146
2023-04-26T12:37:50.550Z,174
2023-04-26T12:39:06.695Z,202
2023-04-26T12:40:22.839Z,241
2023-04-26T12:41:38.980Z,270
2023-04-26T12:42:55.099Z,258
2023-04-26T12:44:11.243Z,225
2023-04-26T12:45:27.432Z,225
2023-04-26T12:46:42.671Z,236
2023-04-26T12:47:57.884Z,253
2023-04-26T12:49:14.018Z,264
2023-04-26T12:50:30.165Z,264
2023-04-26T12:51:46.292Z,270
2023-04-26T12:53:02.436Z,270
2023-04-26T12:54:18.570Z,258
2023-04-26T12:55:34.692Z,253
2023-04-26T12:56:50.842Z,230
2023-04-26T12:58:06.978Z,213
2023-04-26T12:59:23.115Z,196
2023-04-26T13:00:39.248Z,191
2023-04-26T13:01:55.384Z,185
2023-04-26T13:03:11.522Z,196
2023-04-26T13:04:27.667Z,208
2023-04-26T13:05:43.795Z,213
2023-04-26T13:06:59.928Z,213
2023-04-26T13:08:16.064Z,202
2023-04-26T13:09:32.209Z,191
2023-04-26T13:10:48.348Z,174
2023-04-26T13:12:04.462Z,168
2023-04-26T13:13:20.615Z,174
2023-04-26T13:14:36.738Z,174
2023-04-26T13:15:52.892Z,151
2023-04-26T13:17:09.026Z,151
2023-04-26T13:18:25.146Z,168
2023-04-26T13:19:41.340Z,185
2023-04-26T13:20:56.606Z,191
2023-04-26T13:22:11.811Z,196
2023-04-26T13:23:26.962Z,191
2023-04-26T13:24:43.109Z,191
2023-04-26T13:25:59.235Z,196
2023-04-26T13:27:15.374Z,196
2023-04-26T13:28:31.510Z,185
2023-04-26T13:29:47.635Z,168
2023-04-26T13:31:03.803Z,163
2023-04-26T13:32:19.927Z,151
2023-04-26T13:33:36.069Z,140
2023-04-26T13:34:52.187Z,135
2023-04-26T13:36:08.333Z,135
2023-04-26T13:37:24.472Z,135
2023-04-26T13:38:40.604Z,140
2023-04-26T13:39:56.742Z,146
2023-04-26T13:41:12.878Z,151
2023-04-26T13:42:28.998Z,140
2023-04-26T13:43:45.156Z,123
2023-04-26T13:45:01.292Z,106
2023-04-26T13:46:17.427Z,95
2023-04-26T13:47:33.556Z,90
2023-04-26T13:48:49.686Z,90
2023-04-26T13:50:05.841Z,95
2023-04-26T13:51:21.971Z,90
2023-04-26T13:52:38.107Z,101
2023-04-26T13:53:54.233Z,101
2023-04-26T13:55:10.370Z,101
2023-04-26T13:56:26.519Z,90
2023-04-26T13:57:42.648Z,90
2023-04-26T13:58:58.773Z,90
2023-04-26T14:00:14.924Z,90
2023-04-26T14:01:31.058Z,90
2023-04-26T14:02:47.198Z,90
2023-04-26T14:04:03.325Z,90
2023-04-26T14:05:19.465Z,101
2023-04-26T14:06:35.606Z,101
2023-04-26T14:07:51.740Z,112
2023-04-26T14:09:07.888Z,140
2023-04-26T14:10:24.075Z,140
2023-04-26T14:11:39.302Z,140
2023-04-26T14:12:54.515Z,151
2023-04-26T14:14:10.641Z,151
2023-04-26T14:15:26.784Z,163
2023-04-26T14:16:42.913Z,163
2023-04-26T14:17:59.050Z,157
2023-04-26T14:19:15.208Z,140
2023-04-26T14:20:31.330Z,129
2023-04-26T14:21:47.473Z,135
2023-04-26T14:23:03.605Z,140
2023-04-26T14:24:19.739Z,135
2023-04-26T14:25:35.873Z,123
2023-04-26T14:26:52.021Z,106
2023-04-26T14:28:08.159Z,95
2023-04-26T14:29:24.285Z,84
2023-04-26T14:30:40.415Z,73
2023-04-26T14:31:56.570Z,67
2023-04-26T14:33:12.703Z,67
2023-04-26T14:34:28.832Z,67
2023-04-26T14:35:44.970Z,73
2023-04-26T14:37:01.109Z,67
2023-04-26T14:38:17.244Z,78
2023-04-26T14:39:33.374Z,95
2023-04-26T14:40:49.517Z,106
2023-04-26T14:42:05.649Z,106
2023-04-26T14:43:21.786Z,95
2023-04-26T14:44:37.999Z,90
2023-04-26T14:45:53.231Z,90
2023-04-26T14:47:09.430Z,78
2023-04-26T14:48:24.635Z,61
2023-04-26T14:49:40.764Z,67
2023-04-26T14:50:56.897Z,73
2023-04-26T14:52:13.024Z,78
2023-04-26T14:53:29.165Z,90
2023-04-26T14:54:45.310Z,101
2023-04-26T14:56:01.447Z,106
2023-04-26T14:57:17.568Z,101
2023-04-26T14:58:33.716Z,95
2023-04-26T14:59:49.836Z,90
2023-04-26T15:01:06.001Z,90
2023-04-26T15:02:22.124Z,95
2023-04-26T15:03:38.261Z,95
2023-04-26T15:04:54.391Z,90
2023-04-26T15:06:10.534Z,90
2023-04-26T15:07:26.669Z,84
2023-04-26T15:08:42.806Z,84
2023-04-26T15:09:58.941Z,78
2023-04-26T15:11:15.065Z,73
2023-04-26T15:12:31.205Z,73
2023-04-26T15:13:47.361Z,67
2023-04-26T15:15:03.492Z,61
2023-04-26T15:16:19.617Z,61
2023-04-26T15:17:35.746Z,61
2023-04-26T15:18:51.885Z,61
2023-04-26T15:20:08.085Z,67
2023-04-26T15:21:23.339Z,78
2023-04-26T15:22:38.604Z,90
2023-04-26T15:23:53.846Z,101
2023-04-26T15:25:09.051Z,112
2023-04-26T15:26:25.173Z,106
2023-04-26T15:27:41.330Z,106
2023-04-26T15:28:57.460Z,106
2023-04-26T15:30:13.596Z,101
2023-04-26T15:31:29.736Z,106
2023-04-26T15:32:45.859Z,106
2023-04-26T15:34:02.022Z,106
2023-04-26T15:35:18.153Z,106
2023-04-26T15:36:34.274Z,106
2023-04-26T15:37:50.416Z,106
2023-04-26T15:39:06.547Z,106
2023-04-26T15:40:22.696Z,101
2023-04-26T15:41:38.828Z,95
2023-04-26T15:42:54.951Z,90
2023-04-26T15:44:11.096Z,90
2023-04-26T15:45:27.218Z,90
2023-04-26T15:46:43.371Z,84
2023-04-26T15:47:59.497Z,84
2023-04-26T15:49:15.633Z,78
2023-04-26T15:50:31.783Z,67
2023-04-26T15:51:47.909Z,61
2023-04-26T15:53:04.046Z,50
2023-04-26T15:54:20.196Z,45
2023-04-26T15:55:36.314Z,45
2023-04-26T15:56:52.520Z,45
2023-04-26T15:58:07.726Z,45
2023-04-26T15:59:23.847Z,45
2023-04-26T16:00:39.989Z,50
2023-04-26T16:01:56.125Z,50
2023-04-26T16:03:12.264Z,50
2023-04-26T16:04:28.407Z,50
2023-04-26T16:05:44.528Z,45
2023-04-26T16:07:00.660Z,45
2023-04-26T16:08:16.803Z,39
2023-04-26T16:09:32.927Z,33
2023-04-26T16:10:49.088Z,33
2023-04-26T16:12:05.214Z,33
2023-04-26T16:13:21.347Z,33
2023-04-26T16:14:37.478Z,39
2023-04-26T16:15:53.622Z,45
2023-04-26T16:17:09.769Z,45
2023-04-26T16:18:25.900Z,39
2023-04-26T16:19:42.037Z,39
2023-04-26T16:20:58.157Z,33
2023-04-26T16:22:14.303Z,33
2023-04-26T16:23:30.437Z,33
2023-04-26T16:24:46.579Z,28
2023-04-26T16:26:02.710Z,22
2023-04-26T16:27:18.856Z,22
2023-04-26T16:28:34.974Z,22
2023-04-26T16:29:51.188Z,22
2023-04-26T16:31:06.425Z,16
2023-04-26T16:32:21.689Z,16
2023-04-26T16:33:36.943Z,11
2023-04-26T16:34:52.151Z,11
2023-04-26T16:36:08.266Z,5
2023-04-26T16:37:24.414Z,5
2023-04-26T16:38:40.554Z,5
2023-04-26T16:39:56.695Z,5
2023-04-26T16:41:12.818Z,5
2023-04-26T16:42:28.950Z,11
2023-04-26T16:43:45.108Z,11
2023-04-26T16:45:01.239Z,11
2023-04-26T16:46:17.368Z,16
2023-04-26T16:47:33.512Z,16
2023-04-26T16:48:49.642Z,16
2023-04-26T16:50:05.792Z,22
2023-04-26T16:51:21.908Z,22
2023-04-26T16:52:38.054Z,28
2023-04-26T16:53:54.182Z,28
2023-04-26T16:55:10.323Z,33
2023-04-26T16:56:26.456Z,33
2023-04-26T16:57:42.607Z,33
2023-04-26T16:58:58.725Z,33
2023-04-26T17:00:14.867Z,39
2023-04-26T17:01:30.996Z,39
2023-04-26T17:02:47.145Z,39
2023-04-26T17:04:03.284Z,33
2023-04-26T17:05:19.411Z,28
2023-04-26T17:06:35.596Z,28
2023-04-26T17:07:50.809Z,28
2023-04-26T17:09:06.936Z,28
2023-04-26T17:10:23.078Z,28
2023-04-26T17:11:39.211Z,28
2023-04-26T17:12:55.339Z,28
2023-04-26T17:14:11.499Z,22
2023-04-26T17:15:27.620Z,22
2023-04-26T17:16:43.748Z,22
2023-04-26T17:17:59.880Z,22
2023-04-26T17:20:34.436Z,16
2023-04-26T17:21:48.303Z,16
2023-04-26T17:23:04.442Z,16
2023-04-26T17:24:20.687Z,11
2023-04-26T17:25:36.826Z,11
2023-04-26T17:26:52.970Z,11
2023-04-26T17:28:09.107Z,16
2023-04-26T17:29:25.240Z,16
2023-04-26T17:30:41.371Z,16
2023-04-26T17:31:57.494Z,16
2023-04-26T17:33:13.641Z,16
2023-04-26T17:34:29.781Z,16
2023-04-26T17:35:45.916Z,16
2023-04-26T17:37:02.195Z,16
2023-04-26T17:38:17.354Z,16
2023-04-26T17:39:33.497Z,16
2023-04-26T17:40:49.614Z,16
2023-04-26T17:42:05.757Z,11
2023-04-26T17:43:21.885Z,11
2023-04-26T17:44:38.027Z,11
2023-04-26T17:45:54.162Z,11
2023-04-26T17:47:10.311Z,11
2023-04-26T17:48:26.438Z,11
2023-04-26T17:49:42.574Z,11
2023-04-26T17:50:58.706Z,11
2023-04-26T17:52:14.842Z,11
2023-04-26T17:53:30.978Z,11
2023-04-26T17:54:47.236Z,11
2023-04-26T17:56:03.378Z,11
2023-04-26T17:57:19.522Z,11
2023-04-26T17:58:35.647Z,11
2023-04-26T17:59:51.776Z,5
2023-04-26T18:01:07.916Z,5